Time;durP1;ratioP1;P1;durP2;ratioP2;P2;SDS_P1;SDS_P2;PMS_P1;PMS_P2;Temp;Humidity;BMP_temperature;BMP_pressure;BME280_temperature;BME280_humidity;BME280_pressure;Samples;Min_cycle;Max_cycle;Signal;HPM_P1;HPM_P2
2022/06/23 00:01:49;;;;;;;1999.90;999.90;;;22.20;53.90;;;;;;4995742;28;20379;-73
2022/06/23 00:04:23;;;;;;;1999.90;999.90;;;22.20;54.10;;;;;;4995722;28;20431;-74
2022/06/23 00:06:57;;;;;;;1999.90;999.90;;;22.20;54.10;;;;;;4995343;28;20434;-74
2022/06/23 00:09:28;;;;;;;1999.90;999.90;;;22.10;54.40;;;;;;4995754;28;20400;-74
2022/06/23 00:11:55;;;;;;;1999.90;999.90;;;22.10;54.90;;;;;;4994184;28;20529;-75
2022/06/23 00:14:21;;;;;;;1999.90;999.90;;;22.10;55.50;;;;;;4995472;28;20497;-74
2022/06/23 00:16:47;;;;;;;1999.90;999.90;;;22.10;55.80;;;;;;4995400;28;20434;-73
2022/06/23 00:19:14;;;;;;;1999.90;999.90;;;22.10;55.80;;;;;;4995423;28;20399;-74
2022/06/23 00:21:44;;;;;;;1999.90;999.90;;;22.10;56.20;;;;;;4995556;28;20181;-73
2022/06/23 00:24:23;;;;;;;1999.90;999.90;;;22.10;56.40;;;;;;4995528;28;20403;-74
2022/06/23 00:26:50;;;;;;;1999.90;999.90;;;22.10;56.50;;;;;;4995106;28;20403;-74
2022/06/23 00:29:18;;;;;;;1999.90;999.90;;;22.10;57.00;;;;;;4993789;28;20417;-73
2022/06/23 00:31:56;;;;;;;1999.90;999.90;;;22.10;57.50;;;;;;4995120;28;20431;-73
2022/06/23 00:34:34;;;;;;;1999.90;999.90;;;22.10;58.50;;;;;;4994896;28;20410;-73
2022/06/23 00:37:12;;;;;;;1999.90;999.90;;;22.10;58.30;;;;;;4994762;28;20375;-74
2022/06/23 00:39:50;;;;;;;1999.90;999.90;;;22.10;58.20;;;;;;4995126;28;20462;-74
2022/06/23 00:42:36;;;;;;;1999.90;999.90;;;22.00;58.70;;;;;;4995084;28;20457;-73
2022/06/23 00:45:10;;;;;;;1999.90;999.90;;;22.00;58.60;;;;;;4994778;28;20419;-73
2022/06/23 00:47:54;;;;;;;1999.90;999.90;;;21.90;58.90;;;;;;4994448;28;20399;-74
2022/06/23 00:50:44;;;;;;;1999.90;999.90;;;21.90;59.00;;;;;;4994483;28;20813;-74
2022/06/23 00:53:13;;;;;;;1999.90;999.90;;;21.90;59.10;;;;;;4994741;28;20403;-74
2022/06/23 00:55:49;;;;;;;1999.90;999.90;;;21.90;59.30;;;;;;4994530;28;20416;-73
2022/06/23 00:58:27;;;;;;;1999.90;999.90;;;21.80;60.40;;;;;;4994378;28;20784;-73
2022/06/23 01:01:14;;;;;;;1999.90;999.90;;;21.70;60.00;;;;;;4994135;28;20796;-73
2022/06/23 01:03:55;;;;;;;1999.90;999.90;;;21.60;61.10;;;;;;4994467;28;20456;-73
2022/06/23 01:06:26;;;;;;;1999.90;999.90;;;21.60;62.30;;;;;;4994103;28;20485;-74
2022/06/23 01:09:15;;;;;;;1999.90;999.90;;;21.50;63.50;;;;;;4994325;28;20778;-74
2022/06/23 01:12:17;;;;;;;1999.90;999.90;;;21.40;65.90;;;;;;4994322;28;20460;-73
2022/06/23 01:14:50;;;;;;;1999.90;999.90;;;21.40;70.10;;;;;;4994320;28;20957;-73
2022/06/23 01:17:33;;;;;;;1999.90;999.90;;;21.10;78.70;;;;;;4993799;28;20382;-73
2022/06/23 01:19:58;;;;;;;1999.90;999.90;;;20.90;90.60;;;;;;4994284;28;20369;-73
2022/06/23 01:22:35;;;;;;;1999.90;999.90;;;20.60;92.60;;;;;;4994324;28;20392;-74
2022/06/23 01:25:22;;;;;;;1999.90;999.90;;;20.50;94.80;;;;;;4994191;28;20583;-73
2022/06/23 01:28:02;;;;;;;1999.90;999.90;;;20.40;95.40;;;;;;4994241;28;20368;-74
2022/06/23 01:31:12;;;;;;;1999.90;999.90;;;20.40;97.40;;;;;;4994656;28;20436;-73
2022/06/23 01:33:57;;;;;;;1999.90;999.90;;;20.40;99.90;;;;;;4994215;28;20386;-73
2022/06/23 01:36:42;;;;;;;1999.90;999.90;;;20.50;99.90;;;;;;4994447;28;20961;-74
2022/06/23 01:39:26;;;;;;;1999.90;999.90;;;20.40;99.90;;;;;;4994474;28;20422;-73
2022/06/23 01:42:03;;;;;;;1999.90;999.90;;;20.50;99.90;;;;;;4994266;28;20862;-73
2022/06/23 01:44:51;;;;;;;1999.90;999.90;;;20.50;99.90;;;;;;4994264;28;20423;-73
2022/06/23 01:47:49;;;;;;;1999.90;999.90;;;20.60;99.90;;;;;;4993730;28;20797;-73
2022/06/23 01:50:14;;;;;;;1999.90;999.90;;;20.70;99.90;;;;;;4973540;28;20437;-73
2022/06/23 01:52:41;;;;;;;1999.90;999.90;;;20.70;99.90;;;;;;4993902;28;20393;-74
2022/06/23 01:55:20;;;;;;;1999.90;999.90;;;20.70;99.90;;;;;;4993850;28;20211;-73
2022/06/23 01:57:53;;;;;;;1999.90;999.90;;;20.80;99.90;;;;;;4993824;28;20402;-74
2022/06/23 02:00:25;;;;;;;1999.90;999.90;;;20.70;99.90;;;;;;4993779;28;20409;-75
2022/06/23 02:03:09;;;;;;;1999.90;999.90;;;20.80;99.90;;;;;;4993935;28;20369;-73
2022/06/23 02:05:55;;;;;;;1999.90;999.90;;;20.70;99.90;;;;;;4993822;28;20479;-73
2022/06/23 02:08:26;;;;;;;1999.90;999.90;;;20.80;99.90;;;;;;4993743;28;20755;-73
2022/06/23 02:11:13;;;;;;;1999.90;999.90;;;20.70;99.90;;;;;;4993573;28;20425;-73
2022/06/23 02:13:47;;;;;;;1999.90;999.90;;;20.70;99.90;;;;;;4993553;28;20838;-73
2022/06/23 02:16:23;;;;;;;1999.90;999.90;;;20.70;99.90;;;;;;4993694;28;20388;-73
2022/06/23 02:18:52;;;;;;;1999.90;999.90;;;20.70;99.90;;;;;;4993492;28;20848;-73
2022/06/23 02:21:39;;;;;;;1999.90;999.90;;;20.70;99.90;;;;;;4993224;28;20924;-74
2022/06/23 02:24:25;;;;;;;1999.90;999.90;;;20.70;99.90;;;;;;4993443;28;20913;-73
2022/06/23 02:27:08;;;;;;;1999.90;999.90;;;20.60;99.90;;;;;;4993321;28;20384;-73
2022/06/23 02:29:39;;;;;;;1999.90;999.90;;;20.60;99.90;;;;;;4993178;28;20370;-74
2022/06/23 02:32:21;;;;;;;1999.90;999.90;;;20.60;99.90;;;;;;4993291;28;20442;-73
2022/06/23 02:34:53;;;;;;;1999.90;999.90;;;20.50;99.90;;;;;;4993506;28;20421;-73
2022/06/23 02:37:55;;;;;;;1999.90;999.90;;;20.50;99.90;;;;;;4993131;28;20467;-73
2022/06/23 02:40:32;;;;;;;1999.90;999.90;;;20.40;99.90;;;;;;4993659;28;20440;-73
2022/06/23 02:43:15;;;;;;;1999.90;999.90;;;20.20;99.90;;;;;;4994167;28;20398;-73
2022/06/23 02:45:41;;;;;;;1999.90;999.90;;;20.10;99.90;;;;;;4993930;28;20445;-73
2022/06/23 02:48:37;;;;;;;1999.90;999.90;;;20.00;99.90;;;;;;4993477;28;20413;-74
2022/06/23 02:51:17;;;;;;;1999.90;999.90;;;20.00;99.90;;;;;;4993968;28;20293;-73
2022/06/23 02:53:58;;;;;;;1999.90;999.90;;;19.90;99.90;;;;;;4993705;28;20381;-73
2022/06/23 02:56:36;;;;;;;1999.90;999.90;;;19.90;99.90;;;;;;4993640;28;20378;-73
2022/06/23 02:59:08;;;;;;;1999.90;999.90;;;19.90;99.90;;;;;;4993644;28;20527;-73
2022/06/23 03:02:00;;;;;;;1999.90;999.90;;;19.90;99.90;;;;;;4993535;28;20752;-75
2022/06/23 03:04:35;;;;;;;1999.90;999.90;;;19.90;99.90;;;;;;4994042;28;20931;-73
2022/06/23 03:07:34;;;;;;;1999.90;999.90;;;19.90;99.90;;;;;;4993445;28;20403;-73
2022/06/23 03:10:10;;;;;;;1999.90;999.90;;;19.90;99.90;;;;;;4994046;28;20453;-73
2022/06/23 03:12:44;;;;;;;1999.90;999.90;;;19.70;99.90;;;;;;4993871;28;20359;-73
2022/06/23 03:15:28;;;;;;;1999.90;999.90;;;19.70;99.90;;;;;;4993967;28;20407;-73
2022/06/23 03:18:40;;;;;;;1999.90;999.90;;;19.60;99.90;;;;;;4993775;28;20389;-74
2022/06/23 03:21:20;;;;;;;1999.90;999.90;;;19.50;99.90;;;;;;4914793;29;20765;-73
2022/06/23 03:23:56;;;;;;;1999.90;999.90;;;19.50;99.90;;;;;;4984607;28;20399;-73
2022/06/23 03:26:26;;;;;;;1999.90;999.90;;;19.60;99.90;;;;;;4996884;28;20437;-73
2022/06/23 03:29:04;;;;;;;1999.90;999.90;;;19.50;99.90;;;;;;4997309;28;20409;-74
2022/06/23 03:31:55;;;;;;;1999.90;999.90;;;19.50;99.90;;;;;;4996989;28;20785;-74
2022/06/23 03:34:41;;;;;;;1999.90;999.90;;;19.50;99.90;;;;;;4996905;28;20399;-75
2022/06/23 03:37:14;;;;;;;1999.90;999.90;;;19.50;99.90;;;;;;4997196;28;20757;-73
2022/06/23 03:42:54;;;;;;;1999.90;999.90;;;19.60;99.90;;;;;;4955994;29;20406;-74
2022/06/23 03:45:45;;;;;;;1999.90;999.90;;;19.60;99.90;;;;;;4986761;28;20431;-74
2022/06/23 03:48:27;;;;;;;1999.90;999.90;;;19.70;99.90;;;;;;4994763;28;20884;-73
2022/06/23 03:51:05;;;;;;;1999.90;999.90;;;19.70;99.90;;;;;;4996339;28;20514;-73
2022/06/23 03:53:34;;;;;;;1999.90;999.90;;;19.50;99.90;;;;;;4997149;28;20447;-74
2022/06/23 03:56:07;;;;;;;1999.90;999.90;;;19.50;99.90;;;;;;4996421;28;20421;-74
2022/06/23 03:58:49;;;;;;;1999.90;999.90;;;19.40;99.90;;;;;;4996694;28;20393;-73
2022/06/23 04:01:21;;;;;;;1999.90;999.90;;;19.40;99.90;;;;;;4996483;28;20463;-74
2022/06/23 04:04:20;;;;;;;1999.90;999.90;;;19.50;99.90;;;;;;4996491;28;20376;-74
2022/06/23 04:06:48;;;;;;;1999.90;999.90;;;19.60;99.90;;;;;;4984435;28;20425;-74
2022/06/23 04:09:32;;;;;;;1999.90;999.90;;;19.60;99.90;;;;;;4996465;28;20937;-73
2022/06/23 04:12:02;;;;;;;1999.90;999.90;;;19.60;99.90;;;;;;4996240;28;20487;-74
2022/06/23 04:14:43;;;;;;;1999.90;999.90;;;19.60;99.90;;;;;;4995840;28;20432;-74
2022/06/23 04:17:08;;;;;;;1999.90;999.90;;;19.60;99.90;;;;;;4995861;28;20723;-73
2022/06/23 04:19:35;;;;;;;1999.90;999.90;;;19.70;99.90;;;;;;4996548;28;20395;-74
2022/06/23 04:22:09;;;;;;;1999.90;999.90;;;19.70;99.90;;;;;;4996502;28;20675;-73
2022/06/23 04:24:36;;;;;;;1999.90;999.90;;;19.80;99.90;;;;;;4996103;28;20397;-74
2022/06/23 04:27:13;;;;;;;1999.90;999.90;;;19.90;99.90;;;;;;4995880;28;20401;-73
2022/06/23 04:29:39;;;;;;;1999.90;999.90;;;20.00;99.90;;;;;;4995885;28;20495;-75
2022/06/23 04:32:08;;;;;;;1999.90;999.90;;;20.00;99.90;;;;;;4995921;28;20539;-74
2022/06/23 04:34:42;;;;;;;1999.90;999.90;;;20.10;99.90;;;;;;4995635;28;20514;-73
2022/06/23 04:37:39;;;;;;;1999.90;999.90;;;20.20;99.90;;;;;;4994473;28;20366;-73
2022/06/23 04:40:20;;;;;;;1999.90;999.90;;;20.30;99.90;;;;;;4987348;28;20414;-74
2022/06/23 04:42:51;;;;;;;1999.90;999.90;;;20.30;99.90;;;;;;4995778;28;20486;-74
2022/06/23 04:45:36;;;;;;;1999.90;999.90;;;20.30;99.90;;;;;;4995737;28;20757;-74
2022/06/23 04:48:09;;;;;;;1999.90;999.90;;;20.30;99.90;;;;;;4994140;28;20414;-74
2022/06/23 04:50:59;;;;;;;1999.90;999.90;;;20.30;99.90;;;;;;4994074;28;20437;-74
2022/06/23 04:53:37;;;;;;;1999.90;999.90;;;20.30;99.90;;;;;;4993965;28;20901;-74
2022/06/23 04:56:21;;;;;;;1999.90;999.90;;;20.40;99.90;;;;;;4993847;28;20508;-74
2022/06/23 04:58:59;;;;;;;1999.90;999.90;;;20.50;99.90;;;;;;4994927;28;20421;-74
2022/06/23 05:01:33;;;;;;;1999.90;999.90;;;20.60;99.90;;;;;;4995012;28;20886;-74
2022/06/23 05:04:00;;;;;;;1999.90;999.90;;;20.70;99.90;;;;;;4994824;28;20782;-75
2022/06/23 05:06:46;;;;;;;1999.90;999.90;;;20.80;99.90;;;;;;4994555;28;20753;-74
2022/06/23 05:09:26;;;;;;;1999.90;999.90;;;20.90;99.90;;;;;;4994815;28;20783;-74
2022/06/23 05:12:12;;;;;;;1999.90;999.90;;;20.90;99.90;;;;;;4994564;28;20528;-74
2022/06/23 05:15:18;;;;;;;1999.90;999.90;;;20.90;99.90;;;;;;4983552;28;21046;-74
2022/06/23 05:18:17;;;;;;;1999.90;999.90;;;21.00;99.90;;;;;;4994372;28;20484;-74
2022/06/23 05:20:51;;;;;;;1999.90;999.90;;;21.00;99.90;;;;;;4983058;28;20412;-74
2022/06/23 05:23:24;;;;;;;1999.90;999.90;;;21.10;99.90;;;;;;4994308;28;20386;-73
2022/06/23 05:25:54;;;;;;;1999.90;999.90;;;21.10;99.90;;;;;;4994526;28;20430;-74
2022/06/23 05:28:26;;;;;;;1999.90;999.90;;;21.10;99.90;;;;;;4994293;28;20905;-75
2022/06/23 05:30:56;;;;;;;1999.90;999.90;;;21.10;99.90;;;;;;4994832;28;20853;-73
2022/06/23 05:33:27;;;;;;;1999.90;999.90;;;21.10;99.90;;;;;;4993274;28;20393;-74
2022/06/23 05:36:06;;;;;;;1999.90;999.90;;;21.20;99.90;;;;;;4994638;28;20397;-74
2022/06/23 05:38:42;;;;;;;1999.90;999.90;;;21.20;99.90;;;;;;4994372;28;20382;-74
2022/06/23 05:41:41;;;;;;;1999.90;999.90;;;21.30;99.90;;;;;;4994521;28;20455;-75
2022/06/23 05:44:28;;;;;;;1999.90;999.90;;;21.40;99.90;;;;;;4994594;28;20408;-73
2022/06/23 05:46:57;;;;;;;1999.90;999.90;;;21.60;99.90;;;;;;4993634;28;20416;-73
2022/06/23 05:49:30;;;;;;;1999.90;999.90;;;21.70;99.90;;;;;;4993896;28;20393;-74
2022/06/23 05:52:14;;;;;;;1999.90;999.90;;;21.80;99.90;;;;;;4993321;28;20458;-74
2022/06/23 05:54:48;;;;;;;1999.90;999.90;;;21.90;99.90;;;;;;4993123;28;20398;-75
2022/06/23 05:57:16;;;;;;;1999.90;999.90;;;22.00;99.90;;;;;;4992612;28;20401;-74
2022/06/23 05:59:47;;;;;;;1999.90;999.90;;;22.10;99.90;;;;;;4992742;28;20405;-74
2022/06/23 06:02:20;;;;;;;1999.90;999.90;;;22.10;99.90;;;;;;4992860;28;20391;-74
2022/06/23 06:04:55;;;;;;;1999.90;999.90;;;22.10;99.90;;;;;;4992954;28;20809;-74
2022/06/23 06:07:26;;;;;;;1999.90;999.90;;;22.20;99.90;;;;;;4992598;28;20398;-74
2022/06/23 06:09:53;;;;;;;1999.90;999.90;;;22.30;99.90;;;;;;4992790;28;20758;-74
2022/06/23 06:12:34;;;;;;;1999.90;999.90;;;22.40;99.90;;;;;;4992662;28;21042;-74
2022/06/23 06:15:22;;;;;;;1999.90;999.90;;;22.40;99.90;;;;;;4992583;28;20439;-74
2022/06/23 06:17:52;;;;;;;1999.90;999.90;;;22.50;99.90;;;;;;4992565;28;20833;-74
2022/06/23 06:20:24;;;;;;;1999.90;999.90;;;22.60;99.90;;;;;;4992691;28;20415;-74
2022/06/23 06:23:12;;;;;;;1999.90;999.90;;;22.70;99.90;;;;;;4992676;28;20405;-75
2022/06/23 06:25:40;;;;;;;1999.90;999.90;;;22.90;99.90;;;;;;4992549;28;20527;-75
2022/06/23 06:28:27;;;;;;;1999.90;999.90;;;23.10;99.90;;;;;;4992264;28;20471;-74
2022/06/23 06:31:06;;;;;;;1999.90;999.90;;;23.20;99.90;;;;;;4992496;28;20456;-74
2022/06/23 06:33:58;;;;;;;1999.90;999.90;;;23.20;99.90;;;;;;4992560;28;20488;-74
2022/06/23 06:36:39;;;;;;;1999.90;999.90;;;23.30;99.90;;;;;;4989347;28;20428;-74
2022/06/23 06:39:19;;;;;;;1999.90;999.90;;;23.30;99.90;;;;;;4992564;28;20371;-74
2022/06/23 06:41:56;;;;;;;1999.90;999.90;;;23.30;99.90;;;;;;4992358;28;20409;-74
2022/06/23 06:44:22;;;;;;;1999.90;999.90;;;23.40;99.90;;;;;;4992470;28;20819;-74
2022/06/23 06:46:49;;;;;;;1999.90;999.90;;;23.50;99.90;;;;;;4992136;28;20417;-74
2022/06/23 06:49:20;;;;;;;1999.90;999.90;;;23.70;99.90;;;;;;4992419;28;20655;-74
2022/06/23 06:51:49;;;;;;;1999.90;999.90;;;23.90;99.90;;;;;;4992323;28;20928;-74
2022/06/23 06:54:23;;;;;;;1999.90;999.90;;;24.00;99.90;;;;;;4992395;28;20934;-74
2022/06/23 06:56:56;;;;;;;1999.90;999.90;;;24.10;99.90;;;;;;4992027;28;20399;-74
2022/06/23 06:59:27;;;;;;;1999.90;999.90;;;24.20;99.90;;;;;;4992609;28;20915;-74
2022/06/23 07:02:11;;;;;;;1999.90;999.90;;;24.30;99.90;;;;;;4978246;28;20421;-74
2022/06/23 07:04:45;;;;;;;1999.90;999.90;;;24.40;99.90;;;;;;4976603;28;20811;-74
2022/06/23 07:07:18;;;;;;;1999.90;999.90;;;24.40;99.90;;;;;;4976341;28;20455;-74
2022/06/23 07:10:06;;;;;;;1999.90;999.90;;;24.60;99.90;;;;;;4976642;28;20489;-74
2022/06/23 07:12:45;;;;;;;1999.90;999.90;;;24.70;99.90;;;;;;4976524;28;20435;-74
2022/06/23 07:15:43;;;;;;;1999.90;999.90;;;24.80;99.90;;;;;;4976352;28;20428;-74
2022/06/23 07:18:18;;;;;;;1999.90;999.90;;;24.80;99.90;;;;;;4943432;28;20406;-74
2022/06/23 07:20:55;;;;;;;1999.90;999.90;;;25.00;99.90;;;;;;4976368;28;20441;-74
2022/06/23 07:23:37;;;;;;;1999.90;999.90;;;25.20;99.90;;;;;;4976303;28;20433;-74
2022/06/23 07:26:35;;;;;;;1999.90;999.90;;;25.20;99.90;;;;;;4975890;28;20537;-74
2022/06/23 07:29:25;;;;;;;1999.90;999.90;;;25.30;99.90;;;;;;4970517;28;20813;-74
2022/06/23 07:32:13;;;;;;;1999.90;999.90;;;25.40;99.90;;;;;;4976085;28;20469;-74
2022/06/23 07:34:45;;;;;;;1999.90;999.90;;;25.50;99.90;;;;;;4968066;28;20445;-74
2022/06/23 07:37:20;;;;;;;1999.90;999.90;;;25.60;99.90;;;;;;4975871;28;20492;-74
2022/06/23 07:39:53;;;;;;;1999.90;999.90;;;25.60;99.90;;;;;;4976165;28;20405;-74
2022/06/23 07:42:28;;;;;;;1999.90;999.90;;;25.80;99.90;;;;;;4976242;28;20548;-74
2022/06/23 07:45:01;;;;;;;1999.90;999.90;;;25.80;99.90;;;;;;4976570;28;20424;-74
2022/06/23 07:47:27;;;;;;;1999.90;999.90;;;25.90;99.90;;;;;;4976707;28;20425;-75
2022/06/23 07:49:53;;;;;;;1999.90;999.90;;;26.10;99.90;;;;;;4976573;28;20417;-74
2022/06/23 07:52:20;;;;;;;1999.90;999.90;;;26.10;99.90;;;;;;4976076;28;20209;-74
2022/06/23 07:54:49;;;;;;;1999.90;999.90;;;26.20;99.90;;;;;;4976078;28;20194;-75
2022/06/23 07:57:15;;;;;;;1999.90;999.90;;;26.30;99.90;;;;;;4975972;28;20493;-74
2022/06/23 07:59:51;;;;;;;1999.90;999.90;;;26.40;99.90;;;;;;4976174;28;20444;-74
2022/06/23 08:02:24;;;;;;;1999.90;999.90;;;26.60;99.90;;;;;;4976388;28;20932;-74
2022/06/23 08:04:59;;;;;;;1999.90;999.90;;;26.60;99.90;;;;;;4976303;28;20512;-73
2022/06/23 08:07:26;;;;;;;1999.90;999.90;;;26.50;99.90;;;;;;4975870;28;20384;-73
2022/06/23 08:10:00;;;;;;;1999.90;999.90;;;26.50;99.90;;;;;;4974909;28;20425;-74
2022/06/23 08:12:58;;;;;;;1999.90;999.90;;;26.60;99.90;;;;;;4976041;28;20503;-73
2022/06/23 08:18:27;;;;;;;1999.90;999.90;;;26.80;99.90;;;;;;4975717;28;20405;-75
2022/06/23 08:21:05;;;;;;;1999.90;999.90;;;26.80;99.90;;;;;;4975745;28;20406;-74
2022/06/23 08:23:34;;;;;;;1999.90;999.90;;;26.90;99.90;;;;;;4975750;28;20405;-73
2022/06/23 08:26:01;;;;;;;1999.90;999.90;;;26.90;99.90;;;;;;4975201;28;20427;-73
2022/06/23 08:28:27;;;;;;;1999.90;999.90;;;26.90;99.90;;;;;;4975584;28;20782;-74
2022/06/23 08:30:53;;;;;;;1999.90;999.90;;;26.90;99.90;;;;;;4975410;28;20600;-73
2022/06/23 08:33:18;;;;;;;1999.90;999.90;;;27.00;99.90;;;;;;4975416;28;20441;-73
2022/06/23 08:35:49;;;;;;;1999.90;999.90;;;27.10;99.90;;;;;;4975367;28;20281;-71
2022/06/23 08:38:23;;;;;;;1999.90;999.90;;;27.20;99.90;;;;;;4988413;28;20240;-71
2022/06/23 08:40:51;;;;;;;1999.90;999.90;;;27.30;99.90;;;;;;4993663;28;20440;-71
2022/06/23 08:43:37;;;;;;;1999.90;999.90;;;27.40;99.90;;;;;;4993405;28;20417;-70
2022/06/23 08:46:24;;;;;;;1999.90;999.90;;;27.40;99.90;;;;;;4993626;28;20797;-70
2022/06/23 08:49:33;;;;;;;1999.90;999.90;;;27.40;99.90;;;;;;4993884;28;20412;-70
2022/06/23 08:52:14;;;;;;;1999.90;999.90;;;27.40;99.90;;;;;;4993756;28;20461;-70
2022/06/23 08:55:01;;;;;;;1999.90;999.90;;;27.50;99.90;;;;;;4993448;28;20519;-71
2022/06/23 08:57:38;;;;;;;1999.90;999.90;;;27.60;99.90;;;;;;4993433;28;20492;-71
2022/06/23 09:00:07;;;;;;;1999.90;999.90;;;27.60;99.90;;;;;;4993485;28;20507;-71
2022/06/23 09:02:39;;;;;;;1999.90;999.90;;;27.70;99.90;;;;;;4993572;28;20405;-71
2022/06/23 09:05:21;;;;;;;1999.90;999.90;;;27.70;99.90;;;;;;4993575;28;20919;-71
2022/06/23 09:08:04;;;;;;;1999.90;999.90;;;27.80;99.90;;;;;;4993391;28;20512;-71
2022/06/23 09:11:01;;;;;;;1999.90;999.90;;;27.90;99.90;;;;;;4993139;28;20452;-71
2022/06/23 09:13:38;;;;;;;1999.90;999.90;;;28.00;99.90;;;;;;4993571;28;20401;-71
2022/06/23 09:16:27;;;;;;;1999.90;999.90;;;28.10;99.90;;;;;;4992931;28;20511;-71
2022/06/23 09:19:11;;;;;;;1999.90;999.90;;;28.30;99.90;;;;;;4993444;28;20742;-71
2022/06/23 09:22:03;;;;;;;1999.90;999.90;;;28.40;99.90;;;;;;4993089;28;20405;-70
2022/06/23 09:24:38;;;;;;;1999.90;999.90;;;28.40;99.90;;;;;;4993127;28;20792;-71
2022/06/23 09:27:33;;;;;;;1999.90;999.90;;;28.50;99.90;;;;;;4992991;28;20409;-71
2022/06/23 09:30:25;;;;;;;1999.90;999.90;;;28.50;99.90;;;;;;4993028;28;20401;-71
2022/06/23 09:33:21;;;;;;;1999.90;999.90;;;28.50;99.90;;;;;;4962852;28;20437;-71
2022/06/23 09:36:22;;;;;;;1999.90;999.90;;;28.60;99.90;;;;;;4992986;28;20445;-71
2022/06/23 09:39:16;;;;;;;1999.90;999.90;;;28.60;99.90;;;;;;4992945;28;20443;-71
2022/06/23 09:42:29;;;;;;;1999.90;999.90;;;28.70;99.90;;;;;;4990645;28;20809;-71
2022/06/23 09:45:05;;;;;;;1999.90;999.90;;;28.80;99.90;;;;;;4932986;28;20919;-71
2022/06/23 09:47:55;;;;;;;1999.90;999.90;;;28.90;99.90;;;;;;4992553;28;20397;-70
2022/06/23 09:50:24;;;;;;;1999.90;999.90;;;29.00;99.90;;;;;;4992430;28;20879;-71
2022/06/23 09:53:10;;;;;;;1999.90;999.90;;;29.10;99.90;;;;;;4992724;28;20471;-71
2022/06/23 09:56:30;;;;;;;1999.90;999.90;;;29.20;99.90;;;;;;4992570;28;20829;-71
2022/06/23 09:59:07;;;;;;;1999.90;999.90;;;29.40;99.90;;;;;;4913328;29;20443;-71
2022/06/23 10:02:01;;;;;;;1999.90;999.90;;;29.50;99.90;;;;;;4992274;28;20412;-71
2022/06/23 10:04:51;;;;;;;1999.90;999.90;;;29.60;99.90;;;;;;4988521;28;20453;-71
2022/06/23 10:07:41;;;;;;;1999.90;999.90;;;29.70;99.90;;;;;;4992314;28;20465;-71
2022/06/23 10:10:14;;;;;;;1999.90;999.90;;;29.80;99.90;;;;;;4992109;28;20488;-71
2022/06/23 10:13:07;;;;;;;1999.90;999.90;;;29.90;99.90;;;;;;4992453;28;20492;-71
2022/06/23 10:16:09;;;;;;;1999.90;999.90;;;30.10;99.90;;;;;;4992394;28;20409;-71
2022/06/23 10:19:13;;;;;;;1999.90;999.90;;;30.20;99.90;;;;;;4992446;28;20499;-71
2022/06/23 10:22:05;;;;;;;1999.90;999.90;;;30.40;99.90;;;;;;4981661;28;20420;-71
2022/06/23 10:24:45;;;;;;;1999.90;999.90;;;30.50;99.90;;;;;;4992193;28;20856;-71
2022/06/23 10:27:14;;;;;;;1999.90;999.90;;;30.60;99.90;;;;;;4991571;28;20497;-71
2022/06/23 10:29:51;;;;;;;1999.90;999.90;;;30.70;99.90;;;;;;4992095;28;20399;-69
2022/06/23 10:32:29;;;;;;;1999.90;999.90;;;30.90;99.90;;;;;;4992078;28;20957;-68
2022/06/23 10:35:32;;;;;;;1999.90;999.90;;;31.20;99.90;;;;;;4994804;28;20444;-72
2022/06/23 10:38:22;;;;;;;1999.90;999.90;;;31.20;99.90;;;;;;4992961;28;20902;-73
2022/06/23 10:41:20;;;;;;;1999.90;999.90;;;31.20;99.90;;;;;;4994935;28;20413;-73
2022/06/23 10:43:58;;;;;;;1999.90;999.90;;;31.30;99.90;;;;;;5001843;28;20412;-74
2022/06/23 10:46:32;;;;;;;1999.90;999.90;;;31.40;99.90;;;;;;4996167;28;20507;-71
2022/06/23 10:49:16;;;;;;;1999.90;999.90;;;31.50;99.90;;;;;;4997843;28;20391;-72
2022/06/23 10:51:45;;;;;;;1999.90;999.90;;;31.70;99.40;;;;;;4997671;28;20532;-75
2022/06/23 10:54:38;;;;;;;1999.90;999.90;;;32.10;98.50;;;;;;4995811;28;20404;-72
2022/06/23 10:57:22;;;;;;;1999.90;999.90;;;32.20;96.20;;;;;;5008503;23;20377;-69
2022/06/23 11:00:05;;;;;;;1999.90;999.90;;;32.40;95.20;;;;;;4966534;28;20997;-69
2022/06/23 11:02:49;;;;;;;1999.90;999.90;;;32.20;94.10;;;;;;4960340;28;20415;-69
2022/06/23 11:05:45;;;;;;;1999.90;999.90;;;32.10;92.60;;;;;;4951391;29;20465;-69
2022/06/23 11:08:11;;;;;;;1999.90;999.90;;;32.20;93.60;;;;;;4956981;28;21009;-69
2022/06/23 11:10:37;;;;;;;1999.90;999.90;;;32.30;92.10;;;;;;4956996;28;20542;-69
2022/06/23 11:13:30;;;;;;;1999.90;999.90;;;32.50;94.20;;;;;;4957070;28;20659;-69
2022/06/23 11:16:00;;;;;;;1999.90;999.90;;;32.70;92.70;;;;;;4961604;28;20754;-69
2022/06/23 11:18:48;;;;;;;1999.90;999.90;;;33.00;91.40;;;;;;4956938;28;20488;-69
2022/06/23 11:21:52;;;;;;;1999.90;999.90;;;33.20;89.00;;;;;;4956973;28;20410;-69
2022/06/23 11:24:43;;;;;;;1999.90;999.90;;;33.30;85.30;;;;;;4956907;28;20928;-69
2022/06/23 11:27:48;;;;;;;1999.90;999.90;;;33.50;82.40;;;;;;4956195;28;20434;-69
2022/06/23 11:30:22;;;;;;;1999.90;999.90;;;33.40;76.70;;;;;;4971081;28;20457;-69
2022/06/23 11:32:51;;;;;;;1999.90;999.90;;;33.20;77.40;;;;;;4961002;28;20445;-69
2022/06/23 11:35:23;;;;;;;1999.90;999.90;;;33.20;75.80;;;;;;4956488;29;20769;-69
2022/06/23 11:38:10;;;;;;;1999.90;999.90;;;33.20;74.20;;;;;;4956459;28;20422;-68
2022/06/23 11:40:38;;;;;;;1999.90;999.90;;;33.10;72.80;;;;;;4956674;28;20482;-69
2022/06/23 11:43:23;;;;;;;1999.90;999.90;;;33.10;72.20;;;;;;4956558;28;20399;-69
2022/06/23 11:46:15;;;;;;;1999.90;999.90;;;33.10;69.40;;;;;;4956077;28;20436;-69
2022/06/23 11:48:59;;;;;;;1999.90;999.90;;;33.30;77.60;;;;;;4956122;28;20429;-69
2022/06/23 11:51:59;;;;;;;1999.90;999.90;;;33.50;74.20;;;;;;4955877;28;20472;-68
2022/06/23 11:55:08;;;;;;;1999.90;999.90;;;33.80;64.10;;;;;;4956067;28;20454;-69
2022/06/23 11:57:40;;;;;;;1999.90;999.90;;;33.80;59.50;;;;;;4955542;28;20813;-68
2022/06/23 12:00:16;;;;;;;1999.90;999.90;;;33.90;65.10;;;;;;4955843;28;20425;-68
2022/06/23 12:02:44;;;;;;;1999.90;999.90;;;34.00;60.40;;;;;;4955747;28;20413;-68
2022/06/23 12:05:29;;;;;;;1999.90;999.90;;;34.00;60.90;;;;;;4955837;28;20762;-69
2022/06/23 12:08:07;;;;;;;1999.90;999.90;;;34.10;61.00;;;;;;4955690;28;20525;-68
2022/06/23 12:10:35;;;;;;;1999.90;999.90;;;34.50;60.20;;;;;;4955660;28;20518;-69
2022/06/23 12:13:02;;;;;;;1999.90;999.90;;;35.10;57.20;;;;;;4955575;28;20421;-68
2022/06/23 12:15:34;;;;;;;1999.90;999.90;;;35.60;52.60;;;;;;4955714;28;20407;-68
2022/06/23 12:18:09;;;;;;;1999.90;999.90;;;36.00;49.30;;;;;;4955227;28;20818;-68
2022/06/23 12:20:47;;;;;;;1999.90;999.90;;;36.60;44.80;;;;;;4955704;28;20891;-68
2022/06/23 12:23:47;;;;;;;1999.90;999.90;;;37.20;40.50;;;;;;4955628;28;20417;-68
2022/06/23 12:26:21;;;;;;;1999.90;999.90;;;37.40;37.10;;;;;;4955474;28;20993;-69
2022/06/23 12:28:50;;;;;;;1999.90;999.90;;;37.80;34.50;;;;;;4955443;28;20427;-69
2022/06/23 12:31:24;;;;;;;1999.90;999.90;;;38.30;33.70;;;;;;4955141;28;20442;-69
2022/06/23 12:34:03;;;;;;;1999.90;999.90;;;38.90;35.40;;;;;;4955183;28;20762;-67
2022/06/23 12:36:47;;;;;;;1999.90;999.90;;;39.40;32.20;;;;;;4955020;28;20442;-68
2022/06/23 12:39:51;;;;;;;1999.90;999.90;;;39.70;31.10;;;;;;4955130;28;20399;-69
2022/06/23 12:42:37;;;;;;;1999.90;999.90;;;40.30;30.60;;;;;;4958326;28;20424;-68
2022/06/23 12:45:13;;;;;;;1999.90;999.90;;;40.40;27.10;;;;;;4962987;28;20434;-68
2022/06/23 12:48:04;;;;;;;1999.90;999.90;;;40.30;28.80;;;;;;4954780;28;20520;-68
2022/06/23 12:50:48;;;;;;;1999.90;999.90;;;40.60;26.40;;;;;;4954026;28;20489;-68
2022/06/23 12:53:38;;;;;;;1999.90;999.90;;;40.70;25.90;;;;;;4957857;28;20429;-68
2022/06/23 12:56:18;;;;;;;1999.90;999.90;;;41.00;24.60;;;;;;4949816;28;20818;-68
2022/06/23 12:58:55;;;;;;;1999.90;999.90;;;40.80;22.40;;;;;;4960966;28;20551;-68
2022/06/23 13:01:38;;;;;;;1999.90;999.90;;;40.60;23.30;;;;;;4959443;28;20418;-68
2022/06/23 13:04:19;;;;;;;1999.90;999.90;;;40.50;22.70;;;;;;4953961;28;20410;-68
2022/06/23 13:06:45;;;;;;;1999.90;999.90;;;40.80;24.00;;;;;;4954792;28;20485;-69